createdAt,value
2023-02-02T00:01:37.018Z,58.68
2023-02-02T00:04:05.630Z,58.97
2023-02-02T00:06:34.336Z,59.09
2023-02-02T00:09:04.663Z,58.39
2023-02-02T00:11:32.752Z,58.16
2023-02-02T00:14:01.329Z,56.26
2023-02-02T00:16:38.658Z,54.57
2023-02-02T00:19:08.342Z,53.64
2023-02-02T00:21:37.982Z,51.91
2023-02-02T00:24:08.981Z,50.85
2023-02-02T00:26:37.392Z,50.51
2023-02-02T00:29:06.674Z,51.26
2023-02-02T00:31:34.917Z,51.26
2023-02-02T00:34:02.984Z,51.34
2023-02-02T00:36:31.019Z,52.31
2023-02-02T00:38:59.291Z,53.88
2023-02-02T00:41:28.707Z,54.58
2023-02-02T00:44:13.536Z,55.20
2023-02-02T00:46:42.747Z,57.08
2023-02-02T00:49:13.720Z,57.70
2023-02-02T00:51:42.215Z,58.47
2023-02-02T00:54:10.545Z,58.54
2023-02-02T00:56:40.162Z,59.07
2023-02-02T00:59:08.365Z,58.87
2023-02-02T01:01:36.508Z,59.93
2023-02-02T01:04:04.692Z,59.63
2023-02-02T01:06:32.914Z,59.97
2023-02-02T01:09:01.107Z,60.00
2023-02-02T01:11:31.051Z,60.05
2023-02-02T01:14:00.524Z,60.39
2023-02-02T01:16:30.098Z,60.46
2023-02-02T01:18:58.168Z,59.88
2023-02-02T01:21:26.276Z,59.76
2023-02-02T01:23:54.370Z,60.13
2023-02-02T01:26:22.519Z,59.87
2023-02-02T01:28:50.715Z,60.05
2023-02-02T01:31:21.420Z,60.33
2023-02-02T01:33:50.606Z,60.27
2023-02-02T01:36:20.721Z,59.69
2023-02-02T01:38:49.739Z,58.58
2023-02-02T01:41:20.076Z,58.34
2023-02-02T01:43:57.265Z,57.44
2023-02-02T01:46:28.936Z,57.78
2023-02-02T01:49:04.063Z,56.87
2023-02-02T01:51:37.863Z,56.82
2023-02-02T01:54:09.793Z,57.13
2023-02-02T01:56:43.471Z,56.63
2023-02-02T01:59:13.820Z,57.09
2023-02-02T02:01:45.033Z,57.67
2023-02-02T02:04:13.281Z,58.45
2023-02-02T02:06:42.618Z,58.63
2023-02-02T02:09:10.761Z,59.47
2023-02-02T02:11:38.855Z,59.57
2023-02-02T02:14:27.839Z,59.63
2023-02-02T02:17:07.659Z,59.82
2023-02-02T02:20:40.981Z,60.51
2023-02-02T02:24:03.452Z,60.88
2023-02-02T02:26:58.794Z,61.17
2023-02-02T02:29:55.016Z,62.16
2023-02-02T02:32:42.740Z,62.09
2023-02-02T02:35:21.551Z,61.91
2023-02-02T02:37:55.839Z,62.24
2023-02-02T02:40:31.442Z,62.58
2023-02-02T02:43:02.900Z,62.63
2023-02-02T02:45:31.866Z,62.67
2023-02-02T02:48:01.475Z,63.03
2023-02-02T02:50:29.801Z,62.63
2023-02-02T02:53:03.433Z,63.01
2023-02-02T02:55:44.387Z,62.38
2023-02-02T02:58:16.651Z,62.96
2023-02-02T03:00:53.030Z,63.02
2023-02-02T03:03:35.464Z,62.94
2023-02-02T03:06:09.491Z,62.67
2023-02-02T03:08:41.363Z,62.36
2023-02-02T03:11:12.751Z,62.02
2023-02-02T03:13:42.354Z,61.94
2023-02-02T03:16:11.329Z,61.26
2023-02-02T03:18:41.229Z,60.89
2023-02-02T03:21:09.297Z,60.31
2023-02-02T03:23:37.336Z,60.27
2023-02-02T03:26:05.880Z,59.82
2023-02-02T03:28:34.036Z,59.07
2023-02-02T03:31:03.429Z,58.86
2023-02-02T03:33:33.420Z,58.92
2023-02-02T03:36:02.926Z,58.45
2023-02-02T03:38:31.072Z,58.42
2023-02-02T03:40:59.124Z,58.12
2023-02-02T03:43:28.069Z,58.09
2023-02-02T03:46:00.224Z,58.33
2023-02-02T03:48:28.632Z,57.71
2023-02-02T03:50:56.761Z,58.13
2023-02-02T03:53:26.331Z,58.60
2023-02-02T03:55:55.705Z,58.23
2023-02-02T03:58:23.808Z,58.70
2023-02-02T04:00:52.090Z,58.47
2023-02-02T04:03:20.082Z,59.12
2023-02-02T04:05:51.024Z,59.47
2023-02-02T04:08:19.288Z,59.76
2023-02-02T04:10:48.707Z,59.50
2023-02-02T04:13:16.850Z,60.41
2023-02-02T04:15:45.149Z,60.45
2023-02-02T04:18:13.156Z,60.57
2023-02-02T04:20:41.376Z,60.98
2023-02-02T04:23:09.482Z,60.56
2023-02-02T04:25:37.500Z,61.24
2023-02-02T04:28:07.015Z,61.05
2023-02-02T04:30:35.564Z,61.19
2023-02-02T04:33:03.669Z,61.39
2023-02-02T04:35:31.752Z,62.10
2023-02-02T04:37:59.814Z,61.88
2023-02-02T04:40:27.982Z,61.89
2023-02-02T04:42:56.043Z,61.49
2023-02-02T04:45:25.969Z,61.70
2023-02-02T04:47:54.438Z,61.26
2023-02-02T04:50:22.500Z,61.44
2023-02-02T04:52:50.578Z,61.67
2023-02-02T04:55:18.643Z,61.58
2023-02-02T04:57:46.747Z,61.60
2023-02-02T05:00:15.955Z,62.36
2023-02-02T05:02:45.613Z,61.83
2023-02-02T05:05:15.439Z,62.24
2023-02-02T05:07:43.498Z,62.44
2023-02-02T05:10:12.856Z,61.51
2023-02-02T05:12:41.543Z,62.09
2023-02-02T05:15:28.000Z,62.26
2023-02-02T05:17:57.460Z,62.34
2023-02-02T05:20:25.614Z,62.35
2023-02-02T05:22:53.703Z,62.14
2023-02-02T05:25:21.790Z,62.08
2023-02-02T05:27:49.844Z,61.89
2023-02-02T05:30:18.888Z,62.19
2023-02-02T05:32:46.949Z,62.23
2023-02-02T05:35:16.544Z,61.64
2023-02-02T05:37:44.951Z,62.21
2023-02-02T05:40:13.425Z,62.23
2023-02-02T05:42:41.678Z,61.68
2023-02-02T05:45:10.794Z,61.50
2023-02-02T05:47:38.848Z,61.47
2023-02-02T05:50:07.766Z,60.96
2023-02-02T05:52:38.885Z,61.04
2023-02-02T05:55:07.932Z,60.98
2023-02-02T05:57:40.418Z,60.90
2023-02-02T06:00:21.342Z,61.19
2023-02-02T06:02:49.330Z,61.28
2023-02-02T06:05:17.560Z,60.89
2023-02-02T06:07:47.059Z,61.08
2023-02-02T06:10:15.422Z,60.69
2023-02-02T06:12:44.242Z,61.05
2023-02-02T06:15:12.921Z,60.92
2023-02-02T06:17:41.088Z,60.46
2023-02-02T06:20:10.127Z,60.42
2023-02-02T06:22:38.261Z,60.01
2023-02-02T06:25:08.883Z,59.82
2023-02-02T06:27:36.995Z,59.74
2023-02-02T06:30:05.462Z,59.04
2023-02-02T06:32:34.011Z,59.35
2023-02-02T06:35:02.232Z,58.41
2023-02-02T06:37:30.909Z,59.11
2023-02-02T06:39:59.247Z,58.45
2023-02-02T06:42:28.870Z,57.77
2023-02-02T06:44:56.996Z,57.55
2023-02-02T06:47:26.891Z,56.96
2023-02-02T06:49:55.262Z,56.54
2023-02-02T06:52:35.412Z,56.16
2023-02-02T06:55:03.475Z,55.79
2023-02-02T06:57:33.088Z,55.55
2023-02-02T07:00:02.323Z,55.52
2023-02-02T07:02:30.979Z,55.56
2023-02-02T07:04:59.063Z,55.83
2023-02-02T07:07:32.955Z,55.85
2023-02-02T07:10:07.323Z,56.59
2023-02-02T07:12:36.984Z,56.49
2023-02-02T07:15:09.462Z,56.17
2023-02-02T07:17:39.728Z,55.94
2023-02-02T07:20:08.935Z,55.59
2023-02-02T07:22:39.491Z,55.51
2023-02-02T07:25:08.986Z,55.00
2023-02-02T07:27:38.911Z,54.33
2023-02-02T07:30:08.133Z,53.83
2023-02-02T07:32:36.261Z,53.10
2023-02-02T07:35:04.657Z,52.63
2023-02-02T07:37:34.252Z,52.28
2023-02-02T07:40:02.685Z,52.00
2023-02-02T07:42:31.476Z,52.08
2023-02-02T07:45:26.973Z,52.03
2023-02-02T07:47:57.462Z,51.28
2023-02-02T07:50:29.256Z,51.15
2023-02-02T07:52:57.661Z,50.13
2023-02-02T07:55:27.378Z,49.74
2023-02-02T07:58:01.896Z,49.82
2023-02-02T08:00:33.703Z,49.76
2023-02-02T08:03:01.769Z,49.09
2023-02-02T08:05:32.352Z,49.47
2023-02-02T08:08:00.455Z,49.83
2023-02-02T08:10:31.667Z,49.67
2023-02-02T08:12:59.817Z,49.89
2023-02-02T08:15:28.050Z,49.44
2023-02-02T08:17:59.324Z,49.17
2023-02-02T08:20:27.361Z,48.54
2023-02-02T08:22:55.508Z,48.05
2023-02-02T08:25:25.568Z,48.65
2023-02-02T08:27:55.123Z,48.76
2023-02-02T08:30:23.133Z,48.85
2023-02-02T08:32:51.202Z,48.65
2023-02-02T08:35:21.998Z,48.85
2023-02-02T08:37:50.224Z,48.25
2023-02-02T08:40:19.236Z,47.87
2023-02-02T08:42:51.170Z,47.23
2023-02-02T08:46:01.758Z,46.69
2023-02-02T08:48:11.936Z,47.35
2023-02-02T08:50:42.160Z,46.84
2023-02-02T08:53:10.614Z,46.21
2023-02-02T08:55:38.648Z,46.04
2023-02-02T08:58:09.090Z,45.80
2023-02-02T09:00:41.964Z,45.78
2023-02-02T09:03:27.822Z,45.66
2023-02-02T09:05:57.361Z,45.98
2023-02-02T09:08:25.544Z,46.05
2023-02-02T09:10:53.904Z,46.26
2023-02-02T09:13:23.345Z,45.46
2023-02-02T09:15:51.505Z,45.71
2023-02-02T09:18:19.580Z,45.35
2023-02-02T09:20:47.594Z,44.24
2023-02-02T09:23:17.086Z,44.84
2023-02-02T09:25:45.114Z,44.58
2023-02-02T09:28:13.201Z,44.12
2023-02-02T09:30:41.258Z,44.48
2023-02-02T09:33:09.274Z,43.48
2023-02-02T09:35:40.519Z,43.33
2023-02-02T09:38:08.665Z,42.66
2023-02-02T09:40:38.281Z,42.52
2023-02-02T09:43:18.767Z,42.40
2023-02-02T09:45:56.265Z,41.65
2023-02-02T09:48:29.141Z,42.30
2023-02-02T09:51:01.108Z,41.71
2023-02-02T09:53:54.756Z,42.19
2023-02-02T09:56:28.414Z,41.88
2023-02-02T09:59:13.721Z,42.04
2023-02-02T10:01:51.348Z,42.11
2023-02-02T10:04:23.465Z,41.62
2023-02-02T10:06:54.389Z,41.20
2023-02-02T10:09:34.964Z,41.81
2023-02-02T10:12:18.864Z,41.69
2023-02-02T10:14:54.563Z,41.18
2023-02-02T10:17:37.044Z,41.12
2023-02-02T10:20:17.109Z,41.81
2023-02-02T10:22:48.236Z,42.07
2023-02-02T10:25:18.205Z,42.53
2023-02-02T10:27:55.952Z,42.11
2023-02-02T10:30:37.244Z,42.06
2023-02-02T10:33:12.484Z,42.12
2023-02-02T10:35:46.862Z,41.33
2023-02-02T10:38:37.955Z,40.68
2023-02-02T10:41:18.690Z,40.43
2023-02-02T10:44:14.564Z,40.18
2023-02-02T10:46:48.321Z,40.77
2023-02-02T10:49:24.167Z,40.05
2023-02-02T10:51:59.281Z,39.86
2023-02-02T10:54:55.420Z,39.12
2023-02-02T10:57:35.431Z,39.40
2023-02-02T11:00:16.516Z,38.31
2023-02-02T11:02:45.107Z,38.12
2023-02-02T11:05:36.052Z,38.06
2023-02-02T11:08:04.145Z,38.63
2023-02-02T11:10:34.106Z,37.82
2023-02-02T11:13:03.910Z,37.76
2023-02-02T11:15:33.408Z,37.50
2023-02-02T11:18:16.041Z,37.92
2023-02-02T11:20:46.685Z,38.02
2023-02-02T11:23:20.527Z,38.14
2023-02-02T11:26:00.122Z,37.48
2023-02-02T11:28:32.347Z,37.39
2023-02-02T11:31:02.053Z,37.86
2023-02-02T11:33:33.680Z,38.17
2023-02-02T11:36:03.757Z,37.52
2023-02-02T11:38:32.358Z,36.77
2023-02-02T11:41:04.016Z,36.41
2023-02-02T11:43:41.038Z,36.13
2023-02-02T11:46:20.165Z,34.18
2023-02-02T11:48:54.587Z,33.20
2023-02-02T11:51:26.023Z,33.20
2023-02-02T11:54:04.273Z,33.74
2023-02-02T11:56:33.028Z,32.04
2023-02-02T11:59:03.966Z,32.30
2023-02-02T12:01:35.719Z,30.83
2023-02-02T12:04:05.276Z,30.86
2023-02-02T12:06:38.369Z,30.67
2023-02-02T12:09:14.221Z,30.70
2023-02-02T12:11:58.172Z,30.90
2023-02-02T12:14:36.050Z,30.62
2023-02-02T12:17:22.090Z,30.72
2023-02-02T12:20:06.155Z,30.30
2023-02-02T12:22:51.408Z,31.28
2023-02-02T12:25:39.053Z,31.35
2023-02-02T12:28:20.153Z,31.05
2023-02-02T12:30:55.645Z,30.94
2023-02-02T12:33:36.122Z,30.60
2023-02-02T12:36:19.836Z,31.38
2023-02-02T12:39:06.686Z,31.99
2023-02-02T12:42:01.349Z,31.27
2023-02-02T12:44:41.961Z,31.26
2023-02-02T12:47:19.691Z,31.18
2023-02-02T12:50:05.924Z,30.93
2023-02-02T12:52:49.210Z,31.75
2023-02-02T12:55:25.314Z,31.80
2023-02-02T12:58:07.577Z,31.38
2023-02-02T13:00:53.390Z,31.91
2023-02-02T13:03:37.928Z,31.51
2023-02-02T13:06:45.191Z,32.18
2023-02-02T13:09:19.967Z,31.88
2023-02-02T13:11:51.055Z,32.12
2023-02-02T13:14:23.381Z,32.35
2023-02-02T13:16:55.382Z,32.63
2023-02-02T13:19:30.065Z,32.53
2023-02-02T13:22:02.138Z,31.81
2023-02-02T13:24:33.175Z,32.46
2023-02-02T13:27:06.717Z,32.25
2023-02-02T13:29:47.961Z,32.00
2023-02-02T13:32:21.957Z,32.47
2023-02-02T13:34:55.154Z,32.38
2023-02-02T13:37:37.088Z,32.75
2023-02-02T13:40:17.309Z,33.36
2023-02-02T13:42:50.384Z,32.18
2023-02-02T13:45:40.717Z,32.07
2023-02-02T13:48:21.765Z,32.30
2023-02-02T13:51:15.867Z,32.55
2023-02-02T13:54:04.775Z,31.97
2023-02-02T13:56:49.387Z,30.74
2023-02-02T13:59:46.918Z,30.14
2023-02-02T14:02:23.847Z,29.97
2023-02-02T14:05:05.795Z,30.43
2023-02-02T14:07:42.779Z,36.40
2023-02-02T14:10:26.641Z,41.70
2023-02-02T14:12:57.299Z,44.50
2023-02-02T14:15:43.374Z,47.11
2023-02-02T14:18:11.673Z,48.05
2023-02-02T14:20:47.970Z,49.32
2023-02-02T14:23:58.560Z,50.36
2023-02-02T14:26:50.055Z,50.79
2023-02-02T14:29:40.827Z,52.03
2023-02-02T14:32:32.521Z,51.70
2023-02-02T14:35:02.321Z,50.11
2023-02-02T14:37:44.073Z,49.81
2023-02-02T14:40:36.326Z,49.08
2023-02-02T14:43:51.761Z,47.97
2023-02-02T14:46:39.445Z,47.90
2023-02-02T14:49:20.602Z,48.16
2023-02-02T14:51:54.014Z,48.73
2023-02-02T14:54:50.139Z,49.07
2023-02-02T14:57:26.529Z,49.70
2023-02-02T14:59:58.734Z,49.80
2023-02-02T15:02:34.966Z,50.21
2023-02-02T15:05:46.440Z,50.52
2023-02-02T15:08:23.625Z,51.21
2023-02-02T15:11:23.732Z,51.04
2023-02-02T15:13:58.536Z,51.60
2023-02-02T15:16:31.895Z,51.92
2023-02-02T15:19:08.537Z,52.25
2023-02-02T15:21:41.864Z,52.59
2023-02-02T15:24:21.891Z,53.54
2023-02-02T15:26:51.503Z,53.38
2023-02-02T15:29:31.006Z,54.13
2023-02-02T15:32:01.706Z,55.29
2023-02-02T15:34:40.109Z,55.80
2023-02-02T15:37:13.899Z,56.30
2023-02-02T15:39:44.817Z,56.98
2023-02-02T15:42:36.431Z,57.11
2023-02-02T15:45:05.367Z,57.58
2023-02-02T15:47:37.585Z,58.16
2023-02-02T15:50:18.677Z,58.17
2023-02-02T15:52:50.391Z,56.95
2023-02-02T15:55:24.834Z,56.60
2023-02-02T15:57:55.308Z,56.55
2023-02-02T16:00:28.625Z,56.01
2023-02-02T16:03:04.216Z,55.61
2023-02-02T16:05:48.919Z,56.40
2023-02-02T16:08:21.276Z,55.79
2023-02-02T16:10:50.355Z,56.27
2023-02-02T16:13:29.903Z,56.42
2023-02-02T16:16:00.281Z,55.39
2023-02-02T16:18:30.554Z,56.00
2023-02-02T16:21:02.946Z,56.68
2023-02-02T16:23:35.776Z,58.78
2023-02-02T16:26:06.648Z,63.41
2023-02-02T16:28:35.758Z,69.06
2023-02-02T16:31:05.718Z,83.81
2023-02-02T16:33:42.398Z,100.00
2023-02-02T16:36:25.670Z,100.00
2023-02-02T16:38:56.140Z,100.00
2023-02-02T16:41:30.375Z,100.00
2023-02-02T16:44:31.891Z,100.00
2023-02-02T16:47:01.993Z,100.00
2023-02-02T16:49:33.648Z,100.00
2023-02-02T16:52:14.588Z,100.00
2023-02-02T16:54:50.799Z,100.00
2023-02-02T16:57:22.746Z,100.00
2023-02-02T16:59:53.643Z,100.00
2023-02-02T17:02:29.121Z,100.00
2023-02-02T17:05:04.728Z,100.00
2023-02-02T17:07:35.106Z,100.00
2023-02-02T17:10:24.614Z,100.00
2023-02-02T17:12:52.973Z,100.00
2023-02-02T17:15:35.760Z,100.00
2023-02-02T17:18:05.237Z,100.00
2023-02-02T17:20:35.123Z,100.00
2023-02-02T17:23:07.103Z,100.00
2023-02-02T17:25:38.339Z,100.00
2023-02-02T17:28:11.742Z,100.00
2023-02-02T17:30:42.063Z,100.00
2023-02-02T17:33:15.061Z,100.00
2023-02-02T17:35:54.108Z,100.00
2023-02-02T17:38:24.060Z,100.00
2023-02-02T17:40:53.015Z,100.00
2023-02-02T17:43:21.404Z,100.00
2023-02-02T17:45:50.580Z,100.00
2023-02-02T17:48:18.708Z,100.00
2023-02-02T17:50:48.595Z,100.00
2023-02-02T17:53:19.288Z,100.00
2023-02-02T17:55:49.848Z,100.00
2023-02-02T17:58:18.807Z,100.00
2023-02-02T18:00:48.715Z,100.00
2023-02-02T18:03:21.473Z,100.00
2023-02-02T18:05:51.195Z,100.00
2023-02-02T18:08:19.675Z,100.00
2023-02-02T18:10:47.781Z,100.00
2023-02-02T18:13:19.199Z,100.00
2023-02-02T18:15:47.801Z,100.00
2023-02-02T18:18:16.306Z,100.00
2023-02-02T18:20:44.853Z,100.00
2023-02-02T18:23:17.148Z,100.00
2023-02-02T18:25:45.532Z,100.00
2023-02-02T18:28:17.570Z,100.00
2023-02-02T18:30:47.048Z,100.00
2023-02-02T18:33:20.476Z,100.00
2023-02-02T18:35:49.479Z,100.00
2023-02-02T18:38:19.759Z,100.00
2023-02-02T18:40:57.333Z,100.00
2023-02-02T18:43:25.434Z,100.00
2023-02-02T18:45:59.923Z,100.00
2023-02-02T18:48:28.269Z,100.00
2023-02-02T18:50:56.276Z,100.00
2023-02-02T18:53:26.514Z,100.00
2023-02-02T18:55:54.748Z,100.00
2023-02-02T18:58:22.902Z,100.00
2023-02-02T19:00:51.455Z,100.00
2023-02-02T19:03:19.564Z,98.66
2023-02-02T19:06:04.868Z,97.91
2023-02-02T19:08:34.412Z,96.87
2023-02-02T19:11:14.173Z,95.50
2023-02-02T19:13:42.406Z,95.58
2023-02-02T19:16:18.605Z,96.45
2023-02-02T19:18:47.262Z,96.71
2023-02-02T19:21:16.007Z,96.35
2023-02-02T19:23:46.451Z,96.20
2023-02-02T19:26:24.709Z,96.44
2023-02-02T19:28:54.036Z,97.00
2023-02-02T19:31:57.618Z,97.69
2023-02-02T19:34:25.986Z,96.93
2023-02-02T19:36:54.126Z,96.65
2023-02-02T19:39:30.950Z,97.08
2023-02-02T19:42:01.253Z,96.88
2023-02-02T19:44:34.209Z,96.70
2023-02-02T19:47:02.904Z,92.48
2023-02-02T19:49:33.794Z,90.28
2023-02-02T19:52:04.092Z,87.03
2023-02-02T19:54:37.302Z,85.52
2023-02-02T19:57:16.628Z,85.26
2023-02-02T19:59:48.588Z,82.47
2023-02-02T20:02:49.779Z,81.52
2023-02-02T20:05:20.833Z,82.50
2023-02-02T20:11:55.455Z,82.32
2023-02-02T20:18:00.936Z,82.54
2023-02-02T20:21:00.498Z,82.15
2023-02-02T20:27:00.416Z,82.78
2023-02-02T20:30:18.627Z,82.64
2023-02-02T20:33:34.125Z,83.21
2023-02-02T20:36:39.102Z,83.14
2023-02-02T20:43:33.666Z,81.38
2023-02-02T20:47:03.357Z,80.64
2023-02-02T20:53:48.812Z,79.29
2023-02-02T20:56:52.961Z,79.45
2023-02-02T20:59:31.343Z,80.26
2023-02-02T21:02:21.101Z,80.92
2023-02-02T21:05:15.635Z,79.91
2023-02-02T21:08:35.526Z,81.00
2023-02-02T21:11:47.989Z,81.71
2023-02-02T21:14:59.794Z,82.11
2023-02-02T21:21:27.217Z,80.07
2023-02-02T21:24:37.543Z,80.26
2023-02-02T21:27:48.144Z,81.07
2023-02-02T21:30:53.683Z,81.01
2023-02-02T21:33:24.465Z,81.13
2023-02-02T21:36:39.184Z,80.82
2023-02-02T21:43:04.953Z,80.59
2023-02-02T21:46:17.679Z,79.67
2023-02-02T21:48:52.218Z,79.05
2023-02-02T21:51:35.906Z,78.59
2023-02-02T21:54:30.014Z,78.65
2023-02-02T21:57:23.407Z,78.81
2023-02-02T22:00:25.352Z,78.16
2023-02-02T22:03:00.839Z,78.61
2023-02-02T22:05:59.250Z,79.35
2023-02-02T22:08:53.382Z,80.66
2023-02-02T22:14:38.018Z,81.13
2023-02-02T22:17:25.033Z,79.65
2023-02-02T22:20:07.368Z,80.04
2023-02-02T22:26:16.817Z,79.57
2023-02-02T22:28:53.881Z,79.30
2023-02-02T22:31:34.377Z,78.17
2023-02-02T22:34:03.894Z,78.43
2023-02-02T22:36:34.144Z,77.62
2023-02-02T22:39:15.927Z,77.77
2023-02-02T22:41:48.680Z,76.92
2023-02-02T22:47:31.930Z,77.90
2023-02-02T22:50:14.331Z,78.17
2023-02-02T22:52:48.956Z,77.78
2023-02-02T22:55:34.052Z,77.91
2023-02-02T23:01:04.786Z,76.70
2023-02-02T23:03:35.584Z,75.38
2023-02-02T23:06:13.321Z,75.59
2023-02-02T23:11:42.899Z,74.64
2023-02-02T23:14:33.270Z,75.31
2023-02-02T23:17:16.153Z,75.91
2023-02-02T23:20:05.043Z,75.78
2023-02-02T23:23:14.581Z,75.42
2023-02-02T23:25:57.434Z,75.72
2023-02-02T23:28:34.673Z,75.35
2023-02-02T23:31:25.947Z,75.23
2023-02-02T23:33:59.189Z,75.82
2023-02-02T23:36:35.647Z,75.04
2023-02-02T23:39:05.727Z,75.46
2023-02-02T23:41:39.730Z,75.81
2023-02-02T23:44:12.510Z,76.32
2023-02-02T23:46:42.827Z,77.07
2023-02-02T23:49:16.833Z,78.16
2023-02-02T23:51:55.443Z,78.28
2023-02-02T23:57:43.112Z,78.80
